sensor_id;sensor_type;location;lat;lon;timestamp;pressure;altitude;pressure_sealevel;temperature;humidity
71805;BME280;59654;52.216;5.616;2023-02-03T00:00:10;102158.44;;;7.22;95.48
71805;BME280;59654;52.216;5.616;2023-02-03T00:00:46;102158.41;;;7.23;95.27
71805;BME280;59654;52.216;5.616;2023-02-03T00:01:17;102156.63;;;7.25;95.40
71805;BME280;59654;52.216;5.616;2023-02-03T00:01:48;102158.41;;;7.23;95.82
71805;BME280;59654;52.216;5.616;2023-02-03T00:02:19;102157.53;;;7.15;95.02
71805;BME280;59654;52.216;5.616;2023-02-03T00:02:49;102165.47;;;7.15;95.25
71805;BME280;59654;52.216;5.616;2023-02-03T00:03:20;102164.59;;;7.14;95.80
71805;BME280;59654;52.216;5.616;2023-02-03T00:03:51;102169.91;;;7.17;95.36
71805;BME280;59654;52.216;5.616;2023-02-03T00:04:22;102163.72;;;7.15;95.56
71805;BME280;59654;52.216;5.616;2023-02-03T00:04:52;102169.91;;;7.16;95.45
71805;BME280;59654;52.216;5.616;2023-02-03T00:05:23;102167.25;;;7.14;96.15
71805;BME280;59654;52.216;5.616;2023-02-03T00:05:55;102172.59;;;7.19;95.50
71805;BME280;59654;52.216;5.616;2023-02-03T00:06:26;102166.38;;;7.15;95.58
71805;BME280;59654;52.216;5.616;2023-02-03T00:06:57;102165.47;;;7.13;95.67
71805;BME280;59654;52.216;5.616;2023-02-03T00:07:28;102161.94;;;7.11;95.84
71805;BME280;59654;52.216;5.616;2023-02-03T00:07:59;102162.84;;;7.10;95.47
71805;BME280;59654;52.216;5.616;2023-02-03T00:08:30;102165.47;;;7.13;95.98
71805;BME280;59654;52.216;5.616;2023-02-03T00:09:01;102164.59;;;7.13;96.02
71805;BME280;59654;52.216;5.616;2023-02-03T00:09:32;102171.66;;;7.11;95.33
71805;BME280;59654;52.216;5.616;2023-02-03T00:10:03;102162.84;;;7.10;95.17
71805;BME280;59654;52.216;5.616;2023-02-03T00:10:37;102169.03;;;7.12;96.10
71805;BME280;59654;52.216;5.616;2023-02-03T00:11:09;102176.09;;;7.12;96.41
71805;BME280;59654;52.216;5.616;2023-02-03T00:11:39;102172.56;;;7.11;96.18
71805;BME280;59654;52.216;5.616;2023-02-03T00:12:10;102177.84;;;7.14;95.89
71805;BME280;59654;52.216;5.616;2023-02-03T00:12:41;102177.84;;;7.14;96.43
71805;BME280;59654;52.216;5.616;2023-02-03T00:13:13;102176.97;;;7.17;95.61
71805;BME280;59654;52.216;5.616;2023-02-03T00:13:43;102174.31;;;7.17;96.08
71805;BME280;59654;52.216;5.616;2023-02-03T00:14:14;102169.94;;;7.19;96.06
71805;BME280;59654;52.216;5.616;2023-02-03T00:14:45;102169.03;;;7.20;95.80
71805;BME280;59654;52.216;5.616;2023-02-03T00:15:16;102162.81;;;7.16;95.54
71805;BME280;59654;52.216;5.616;2023-02-03T00:15:47;102172.56;;;7.17;95.11
71805;BME280;59654;52.216;5.616;2023-02-03T00:16:17;102169.03;;;7.20;95.65
71805;BME280;59654;52.216;5.616;2023-02-03T00:16:48;102171.69;;;7.20;95.18
71805;BME280;59654;52.216;5.616;2023-02-03T00:17:19;102169.94;;;7.21;95.52
71805;BME280;59654;52.216;5.616;2023-02-03T00:17:50;102170.81;;;7.21;95.41
71805;BME280;59654;52.216;5.616;2023-02-03T00:18:20;102171.66;;;7.25;94.80
71805;BME280;59654;52.216;5.616;2023-02-03T00:18:51;102169.94;;;7.22;95.01
71805;BME280;59654;52.216;5.616;2023-02-03T00:19:22;102166.34;;;7.26;95.40
71805;BME280;59654;52.216;5.616;2023-02-03T00:19:53;102165.50;;;7.23;94.62
71805;BME280;59654;52.216;5.616;2023-02-03T00:20:23;102163.69;;;7.26;95.68
71805;BME280;59654;52.216;5.616;2023-02-03T00:20:55;102157.50;;;7.29;95.35
71805;BME280;59654;52.216;5.616;2023-02-03T00:21:25;102159.28;;;7.30;95.71
71805;BME280;59654;52.216;5.616;2023-02-03T00:21:56;102162.81;;;7.32;94.95
71805;BME280;59654;52.216;5.616;2023-02-03T00:22:27;102159.25;;;7.34;94.82
71805;BME280;59654;52.216;5.616;2023-02-03T00:23:05;102163.69;;;7.29;95.13
71805;BME280;59654;52.216;5.616;2023-02-03T00:23:38;102160.16;;;7.27;94.53
71805;BME280;59654;52.216;5.616;2023-02-03T00:24:08;102164.59;;;7.28;94.95
71805;BME280;59654;52.216;5.616;2023-02-03T00:24:39;102167.25;;;7.24;94.86
71805;BME280;59654;52.216;5.616;2023-02-03T00:25:10;102178.72;;;7.24;95.00
71805;BME280;59654;52.216;5.616;2023-02-03T00:25:40;102171.66;;;7.23;94.85
71805;BME280;59654;52.216;5.616;2023-02-03T00:26:14;102174.34;;;7.22;94.73
71805;BME280;59654;52.216;5.616;2023-02-03T00:26:46;102175.19;;;7.24;95.02
71805;BME280;59654;52.216;5.616;2023-02-03T00:27:17;102179.63;;;7.23;94.69
71805;BME280;59654;52.216;5.616;2023-02-03T00:27:47;102182.28;;;7.25;95.04
71805;BME280;59654;52.216;5.616;2023-02-03T00:28:18;102179.66;;;7.20;94.34
71805;BME280;59654;52.216;5.616;2023-02-03T00:28:49;102191.16;;;7.22;95.07
71805;BME280;59654;52.216;5.616;2023-02-03T00:29:19;102194.69;;;7.20;94.45
71805;BME280;59654;52.216;5.616;2023-02-03T00:29:54;102185.84;;;7.21;94.63
71805;BME280;59654;52.216;5.616;2023-02-03T00:30:25;102187.63;;;7.20;95.06
71805;BME280;59654;52.216;5.616;2023-02-03T00:30:56;102188.50;;;7.21;94.95
71805;BME280;59654;52.216;5.616;2023-02-03T00:31:27;102189.38;;;7.21;94.66
71805;BME280;59654;52.216;5.616;2023-02-03T00:31:58;102195.53;;;7.23;95.23
71805;BME280;59654;52.216;5.616;2023-02-03T00:32:29;102196.41;;;7.25;95.21
71805;BME280;59654;52.216;5.616;2023-02-03T00:33:00;102197.31;;;7.27;95.46
71805;BME280;59654;52.216;5.616;2023-02-03T00:33:31;102182.28;;;7.25;95.56
71805;BME280;59654;52.216;5.616;2023-02-03T00:34:03;102192.88;;;7.28;95.39
71805;BME280;59654;52.216;5.616;2023-02-03T00:34:33;102195.53;;;7.31;95.21
71805;BME280;59654;52.216;5.616;2023-02-03T00:35:04;102187.56;;;7.28;94.44
71805;BME280;59654;52.216;5.616;2023-02-03T00:35:39;102184.03;;;7.26;95.00
71805;BME280;59654;52.216;5.616;2023-02-03T00:36:10;102188.47;;;7.28;93.79
71805;BME280;59654;52.216;5.616;2023-02-03T00:36:41;102198.19;;;7.28;94.93
71805;BME280;59654;52.216;5.616;2023-02-03T00:37:12;102194.69;;;7.23;94.34
71805;BME280;59654;52.216;5.616;2023-02-03T00:37:43;102183.19;;;7.22;95.46
71805;BME280;59654;52.216;5.616;2023-02-03T00:38:14;102193.78;;;7.14;95.19
71805;BME280;59654;52.216;5.616;2023-02-03T00:38:45;102192.00;;;7.15;95.50
71805;BME280;59654;52.216;5.616;2023-02-03T00:39:18;102188.47;;;7.11;95.43
71805;BME280;59654;52.216;5.616;2023-02-03T00:39:50;102194.66;;;7.16;95.04
71805;BME280;59654;52.216;5.616;2023-02-03T00:40:23;102192.88;;;7.17;95.11
71805;BME280;59654;52.216;5.616;2023-02-03T00:40:55;102193.78;;;7.16;94.53
71805;BME280;59654;52.216;5.616;2023-02-03T00:41:29;102187.59;;;7.15;95.28
71805;BME280;59654;52.216;5.616;2023-02-03T00:42:04;102190.22;;;7.17;94.83
71805;BME280;59654;52.216;5.616;2023-02-03T00:42:35;102177.88;;;7.21;95.11
71805;BME280;59654;52.216;5.616;2023-02-03T00:43:06;102186.72;;;7.20;94.27
71805;BME280;59654;52.216;5.616;2023-02-03T00:43:36;102177.88;;;7.19;94.59
71805;BME280;59654;52.216;5.616;2023-02-03T00:44:07;102184.03;;;7.16;94.15
71805;BME280;59654;52.216;5.616;2023-02-03T00:44:38;102187.59;;;7.11;94.63
71805;BME280;59654;52.216;5.616;2023-02-03T00:45:10;102183.16;;;7.08;95.76
71805;BME280;59654;52.216;5.616;2023-02-03T00:45:41;102173.44;;;7.10;95.24
71805;BME280;59654;52.216;5.616;2023-02-03T00:46:12;102178.75;;;7.12;95.47
71805;BME280;59654;52.216;5.616;2023-02-03T00:46:43;102185.81;;;7.13;95.34
71805;BME280;59654;52.216;5.616;2023-02-03T00:47:14;102181.41;;;7.13;95.58
71805;BME280;59654;52.216;5.616;2023-02-03T00:47:45;102184.94;;;7.14;94.73
71805;BME280;59654;52.216;5.616;2023-02-03T00:48:17;102181.41;;;7.13;94.80
71805;BME280;59654;52.216;5.616;2023-02-03T00:48:47;102181.41;;;7.16;95.20
71805;BME280;59654;52.216;5.616;2023-02-03T00:49:18;102175.22;;;7.16;94.94
71805;BME280;59654;52.216;5.616;2023-02-03T00:49:49;102185.81;;;7.16;94.73
71805;BME280;59654;52.216;5.616;2023-02-03T00:50:20;102177.84;;;7.16;94.98
71805;BME280;59654;52.216;5.616;2023-02-03T00:50:51;102188.50;;;7.19;95.29
71805;BME280;59654;52.216;5.616;2023-02-03T00:51:22;102179.66;;;7.20;95.00
71805;BME280;59654;52.216;5.616;2023-02-03T00:51:53;102188.50;;;7.21;94.73
71805;BME280;59654;52.216;5.616;2023-02-03T00:52:24;102189.38;;;7.20;95.28
71805;BME280;59654;52.216;5.616;2023-02-03T00:52:55;102193.78;;;7.16;94.48
71805;BME280;59654;52.216;5.616;2023-02-03T00:53:25;102195.53;;;7.15;95.07
71805;BME280;59654;52.216;5.616;2023-02-03T00:53:56;102186.69;;;7.10;94.41
71805;BME280;59654;52.216;5.616;2023-02-03T00:54:27;102187.59;;;7.11;94.66
71805;BME280;59654;52.216;5.616;2023-02-03T00:54:58;102177.84;;;7.13;95.24
71805;BME280;59654;52.216;5.616;2023-02-03T00:55:28;102175.22;;;7.10;94.96
71805;BME280;59654;52.216;5.616;2023-02-03T00:55:59;102184.94;;;7.08;94.93
71805;BME280;59654;52.216;5.616;2023-02-03T00:56:30;102177.88;;;7.08;95.14
71805;BME280;59654;52.216;5.616;2023-02-03T00:57:01;102171.66;;;7.11;95.24
71805;BME280;59654;52.216;5.616;2023-02-03T00:57:31;102173.44;;;7.12;95.46
71805;BME280;59654;52.216;5.616;2023-02-03T00:58:02;102183.16;;;7.13;95.21
71805;BME280;59654;52.216;5.616;2023-02-03T00:58:34;102184.03;;;7.16;94.96
71805;BME280;59654;52.216;5.616;2023-02-03T00:59:07;102177.88;;;7.19;94.61
71805;BME280;59654;52.216;5.616;2023-02-03T00:59:37;102174.34;;;7.20;94.42
71805;BME280;59654;52.216;5.616;2023-02-03T01:00:09;102177.00;;;7.22;94.26
71805;BME280;59654;52.216;5.616;2023-02-03T01:00:40;102176.13;;;7.20;94.53
71805;BME280;59654;52.216;5.616;2023-02-03T01:01:11;102171.69;;;7.20;93.81
71805;BME280;59654;52.216;5.616;2023-02-03T01:01:41;102174.31;;;7.23;93.88
71805;BME280;59654;52.216;5.616;2023-02-03T01:02:12;102169.00;;;7.23;93.80
71805;BME280;59654;52.216;5.616;2023-02-03T01:02:43;102164.59;;;7.24;93.94
71805;BME280;59654;52.216;5.616;2023-02-03T01:03:15;102173.47;;;7.21;94.83
71805;BME280;59654;52.216;5.616;2023-02-03T01:03:46;102167.28;;;7.22;93.92
71805;BME280;59654;52.216;5.616;2023-02-03T01:04:17;102163.75;;;7.19;94.04
71805;BME280;59654;52.216;5.616;2023-02-03T01:04:48;102169.03;;;7.22;94.82
71805;BME280;59654;52.216;5.616;2023-02-03T01:05:19;102168.16;;;7.23;93.97
71805;BME280;59654;52.216;5.616;2023-02-03T01:05:49;102167.25;;;7.24;94.21
71805;BME280;59654;52.216;5.616;2023-02-03T01:06:21;102168.13;;;7.24;93.94
71805;BME280;59654;52.216;5.616;2023-02-03T01:06:52;102161.09;;;7.20;93.79
71805;BME280;59654;52.216;5.616;2023-02-03T01:07:26;102161.09;;;7.19;94.10
71805;BME280;59654;52.216;5.616;2023-02-03T01:07:59;102160.19;;;7.21;94.03
71805;BME280;59654;52.216;5.616;2023-02-03T01:08:30;102158.41;;;7.25;94.43
71805;BME280;59654;52.216;5.616;2023-02-03T01:09:02;102147.78;;;7.26;93.79
71805;BME280;59654;52.216;5.616;2023-02-03T01:09:34;102152.19;;;7.27;94.09
71805;BME280;59654;52.216;5.616;2023-02-03T01:10:06;102158.38;;;7.31;92.94
71805;BME280;59654;52.216;5.616;2023-02-03T01:10:38;102147.78;;;7.29;93.68
71805;BME280;59654;52.216;5.616;2023-02-03T01:11:11;102155.72;;;7.31;93.99
71805;BME280;59654;52.216;5.616;2023-02-03T01:11:47;102160.16;;;7.29;93.41
71805;BME280;59654;52.216;5.616;2023-02-03T01:12:18;102157.50;;;7.30;93.46
71805;BME280;59654;52.216;5.616;2023-02-03T01:12:48;102159.28;;;7.31;93.25
71805;BME280;59654;52.216;5.616;2023-02-03T01:13:19;102156.63;;;7.34;94.04
71805;BME280;59654;52.216;5.616;2023-02-03T01:13:52;102155.72;;;7.38;93.87
71805;BME280;59654;52.216;5.616;2023-02-03T01:14:23;102157.50;;;7.36;92.90
71805;BME280;59654;52.216;5.616;2023-02-03T01:14:54;102162.81;;;7.33;93.62
71805;BME280;59654;52.216;5.616;2023-02-03T01:15:25;102161.03;;;7.32;93.41
71805;BME280;59654;52.216;5.616;2023-02-03T01:15:56;102161.91;;;7.34;93.76
71805;BME280;59654;52.216;5.616;2023-02-03T01:16:28;102165.47;;;7.35;93.15
71805;BME280;59654;52.216;5.616;2023-02-03T01:17:00;102161.91;;;7.34;93.59
71805;BME280;59654;52.216;5.616;2023-02-03T01:17:31;102172.53;;;7.37;93.81
71805;BME280;59654;52.216;5.616;2023-02-03T01:18:02;102171.66;;;7.29;93.19
71805;BME280;59654;52.216;5.616;2023-02-03T01:18:33;102167.22;;;7.28;93.63
71805;BME280;59654;52.216;5.616;2023-02-03T01:19:04;102170.78;;;7.29;93.50
71805;BME280;59654;52.216;5.616;2023-02-03T01:19:35;102173.41;;;7.32;92.75
71805;BME280;59654;52.216;5.616;2023-02-03T01:20:06;102173.41;;;7.30;93.91
71805;BME280;59654;52.216;5.616;2023-02-03T01:20:37;102178.72;;;7.29;93.76
71805;BME280;59654;52.216;5.616;2023-02-03T01:21:17;102181.38;;;7.30;93.07
71805;BME280;59654;52.216;5.616;2023-02-03T01:21:49;102180.50;;;7.36;93.02
71805;BME280;59654;52.216;5.616;2023-02-03T01:22:20;102175.19;;;7.30;93.55
71805;BME280;59654;52.216;5.616;2023-02-03T01:22:51;102177.84;;;7.34;93.37
71805;BME280;59654;52.216;5.616;2023-02-03T01:23:21;102168.13;;;7.32;93.52
71805;BME280;59654;52.216;5.616;2023-02-03T01:23:53;102170.78;;;7.30;93.12
71805;BME280;59654;52.216;5.616;2023-02-03T01:24:24;102172.53;;;7.31;93.42
71805;BME280;59654;52.216;5.616;2023-02-03T01:24:54;102168.09;;;7.35;94.05
71805;BME280;59654;52.216;5.616;2023-02-03T01:25:25;102171.66;;;7.31;92.85
71805;BME280;59654;52.216;5.616;2023-02-03T01:26:01;102171.66;;;7.35;94.14
71805;BME280;59654;52.216;5.616;2023-02-03T01:26:33;102168.09;;;7.38;93.76
71805;BME280;59654;52.216;5.616;2023-02-03T01:27:04;102163.69;;;7.37;93.53
71805;BME280;59654;52.216;5.616;2023-02-03T01:27:35;102159.25;;;7.34;92.74
71805;BME280;59654;52.216;5.616;2023-02-03T01:28:06;102155.72;;;7.34;92.30
71805;BME280;59654;52.216;5.616;2023-02-03T01:28:37;102155.72;;;7.35;93.16
71805;BME280;59654;52.216;5.616;2023-02-03T01:29:08;102153.06;;;7.37;92.81
71805;BME280;59654;52.216;5.616;2023-02-03T01:29:39;102143.31;;;7.40;93.05
71805;BME280;59654;52.216;5.616;2023-02-03T01:30:10;102141.56;;;7.38;92.68
71805;BME280;59654;52.216;5.616;2023-02-03T01:30:41;102137.16;;;7.38;92.71
71805;BME280;59654;52.216;5.616;2023-02-03T01:31:14;102135.38;;;7.39;92.81
71805;BME280;59654;52.216;5.616;2023-02-03T01:31:47;102140.69;;;7.37;93.34
71805;BME280;59654;52.216;5.616;2023-02-03T01:32:17;102144.22;;;7.35;92.44
71805;BME280;59654;52.216;5.616;2023-02-03T01:32:48;102140.69;;;7.31;93.20
71805;BME280;59654;52.216;5.616;2023-02-03T01:33:19;102138.06;;;7.30;92.47
71805;BME280;59654;52.216;5.616;2023-02-03T01:33:51;102138.94;;;7.24;93.42
71805;BME280;59654;52.216;5.616;2023-02-03T01:34:23;102138.97;;;7.21;92.48
71805;BME280;59654;52.216;5.616;2023-02-03T01:34:54;102142.53;;;7.20;92.78
71805;BME280;59654;52.216;5.616;2023-02-03T01:35:25;102133.66;;;7.15;93.04
71805;BME280;59654;52.216;5.616;2023-02-03T01:35:59;102146.91;;;7.10;93.24
71805;BME280;59654;52.216;5.616;2023-02-03T01:36:32;102139.84;;;7.11;93.90
71805;BME280;59654;52.216;5.616;2023-02-03T01:37:06;102140.78;;;7.05;93.81
71805;BME280;59654;52.216;5.616;2023-02-03T01:37:36;102138.06;;;7.10;93.95
71805;BME280;59654;52.216;5.616;2023-02-03T01:38:07;102135.44;;;7.10;93.38
71805;BME280;59654;52.216;5.616;2023-02-03T01:38:39;102149.56;;;7.12;93.75
71805;BME280;59654;52.216;5.616;2023-02-03T01:39:10;102142.50;;;7.15;93.63
71805;BME280;59654;52.216;5.616;2023-02-03T01:39:42;102131.88;;;7.17;94.29
71805;BME280;59654;52.216;5.616;2023-02-03T01:40:13;102135.44;;;7.19;93.46
71805;BME280;59654;52.216;5.616;2023-02-03T01:40:44;102133.69;;;7.21;93.47
71805;BME280;59654;52.216;5.616;2023-02-03T01:41:19;102127.44;;;7.24;93.40
71805;BME280;59654;52.216;5.616;2023-02-03T01:41:54;102129.25;;;7.20;93.08
71805;BME280;59654;52.216;5.616;2023-02-03T01:42:31;102128.34;;;7.24;93.71
71805;BME280;59654;52.216;5.616;2023-02-03T01:43:03;102128.31;;;7.29;92.59
71805;BME280;59654;52.216;5.616;2023-02-03T01:43:37;102130.97;;;7.27;92.95
71805;BME280;59654;52.216;5.616;2023-02-03T01:45:00;102124.78;;;7.27;93.19
71805;BME280;59654;52.216;5.616;2023-02-03T01:45:25;102134.50;;;7.28;92.66
71805;BME280;59654;52.216;5.616;2023-02-03T01:45:57;102128.34;;;7.26;92.79
71805;BME280;59654;52.216;5.616;2023-02-03T01:47:58;102128.34;;;7.15;92.73
71805;BME280;59654;52.216;5.616;2023-02-03T01:48:32;102132.75;;;7.17;92.96
71805;BME280;59654;52.216;5.616;2023-02-03T01:49:12;102132.78;;;7.19;93.27
71805;BME280;59654;52.216;5.616;2023-02-03T01:49:56;102138.09;;;7.21;93.12
71805;BME280;59654;52.216;5.616;2023-02-03T01:50:32;102142.47;;;7.23;93.06
71805;BME280;59654;52.216;5.616;2023-02-03T01:51:06;102144.25;;;7.27;92.99
71805;BME280;59654;52.216;5.616;2023-02-03T01:51:41;102145.13;;;7.28;92.66
71805;BME280;59654;52.216;5.616;2023-02-03T01:52:13;102147.78;;;7.28;92.46
71805;BME280;59654;52.216;5.616;2023-02-03T01:52:50;102142.47;;;7.23;92.75
71805;BME280;59654;52.216;5.616;2023-02-03T01:53:23;102149.59;;;7.21;93.00
71805;BME280;59654;52.216;5.616;2023-02-03T01:53:54;102142.53;;;7.20;92.47
71805;BME280;59654;52.216;5.616;2023-02-03T01:54:34;102130.13;;;7.21;93.02
71805;BME280;59654;52.216;5.616;2023-02-03T01:55:13;102130.09;;;7.24;93.80
71805;BME280;59654;52.216;5.616;2023-02-03T01:55:49;102126.56;;;7.26;92.68
71805;BME280;59654;52.216;5.616;2023-02-03T01:56:21;102133.63;;;7.29;92.83
71805;BME280;59654;52.216;5.616;2023-02-03T01:56:58;102127.44;;;7.30;92.82
71805;BME280;59654;52.216;5.616;2023-02-03T01:57:37;102125.69;;;7.27;92.20
71805;BME280;59654;52.216;5.616;2023-02-03T01:58:29;102118.59;;;7.31;92.20
71805;BME280;59654;52.216;5.616;2023-02-03T01:59:02;102123.91;;;7.32;92.47
71805;BME280;59654;52.216;5.616;2023-02-03T01:59:34;102107.13;;;7.24;91.25
71805;BME280;59654;52.216;5.616;2023-02-03T02:00:06;102109.75;;;7.24;91.42
71805;BME280;59654;52.216;5.616;2023-02-03T02:00:44;102108.00;;;7.23;91.89
71805;BME280;59654;52.216;5.616;2023-02-03T02:01:17;102102.69;;;7.25;92.08
71805;BME280;59654;52.216;5.616;2023-02-03T02:01:49;102102.69;;;7.25;92.17
71805;BME280;59654;52.216;5.616;2023-02-03T02:02:21;102103.63;;;7.22;92.10
71805;BME280;59654;52.216;5.616;2023-02-03T02:02:58;102104.50;;;7.20;92.36
71805;BME280;59654;52.216;5.616;2023-02-03T02:03:49;102105.34;;;7.23;92.07
71805;BME280;59654;52.216;5.616;2023-02-03T02:04:28;102113.31;;;7.23;91.42
71805;BME280;59654;52.216;5.616;2023-02-03T02:05:23;102101.81;;;7.18;91.44
71805;BME280;59654;52.216;5.616;2023-02-03T02:06:03;102114.19;;;7.16;92.28
71805;BME280;59654;52.216;5.616;2023-02-03T02:06:38;102112.47;;;7.20;92.81
71805;BME280;59654;52.216;5.616;2023-02-03T02:07:13;102110.69;;;7.20;92.81
71805;BME280;59654;52.216;5.616;2023-02-03T02:07:46;102109.81;;;7.21;92.42
71805;BME280;59654;52.216;5.616;2023-02-03T02:08:19;102110.69;;;7.22;92.16
71805;BME280;59654;52.216;5.616;2023-02-03T02:08:53;102108.03;;;7.22;92.33
71805;BME280;59654;52.216;5.616;2023-02-03T02:09:26;102107.16;;;7.20;91.78
71805;BME280;59654;52.216;5.616;2023-02-03T02:09:57;102103.59;;;7.16;91.84
71805;BME280;59654;52.216;5.616;2023-02-03T02:10:29;102104.47;;;7.18;91.81
71805;BME280;59654;52.216;5.616;2023-02-03T02:11:01;102110.69;;;7.20;92.48
71805;BME280;59654;52.216;5.616;2023-02-03T02:11:32;102104.50;;;7.21;91.77
71805;BME280;59654;52.216;5.616;2023-02-03T02:12:04;102107.13;;;7.18;92.19
71805;BME280;59654;52.216;5.616;2023-02-03T02:12:35;102111.53;;;7.16;91.98
71805;BME280;59654;52.216;5.616;2023-02-03T02:13:06;102113.31;;;7.15;92.36
71805;BME280;59654;52.216;5.616;2023-02-03T02:13:37;102117.75;;;7.15;92.08
71805;BME280;59654;52.216;5.616;2023-02-03T02:14:09;102121.28;;;7.14;91.55
71805;BME280;59654;52.216;5.616;2023-02-03T02:14:42;102117.75;;;7.09;92.11
71805;BME280;59654;52.216;5.616;2023-02-03T02:15:14;102117.75;;;7.09;92.20
71805;BME280;59654;52.216;5.616;2023-02-03T02:15:59;102112.44;;;7.07;92.56
71805;BME280;59654;52.216;5.616;2023-02-03T02:16:49;102113.31;;;7.11;91.94
71805;BME280;59654;52.216;5.616;2023-02-03T02:21:22;102124.81;;;7.17;92.18
71805;BME280;59654;52.216;5.616;2023-02-03T02:22:05;102125.69;;;7.18;91.46
71805;BME280;59654;52.216;5.616;2023-02-03T02:25:13;102109.81;;;7.23;91.22
71805;BME280;59654;52.216;5.616;2023-02-03T02:26:45;102112.44;;;7.15;91.98
71805;BME280;59654;52.216;5.616;2023-02-03T02:31:26;102113.34;;;7.22;91.50
71805;BME280;59654;52.216;5.616;2023-02-03T02:32:21;102119.53;;;7.22;91.16
71805;BME280;59654;52.216;5.616;2023-02-03T02:36:30;102129.22;;;7.17;90.66
71805;BME280;59654;52.216;5.616;2023-02-03T02:39:10;102126.56;;;7.26;91.66
71805;BME280;59654;52.216;5.616;2023-02-03T02:39:57;102121.25;;;7.28;90.78
71805;BME280;59654;52.216;5.616;2023-02-03T02:40:55;102124.78;;;7.25;91.53
71805;BME280;59654;52.216;5.616;2023-02-03T02:42:00;102116.81;;;7.28;91.53
71805;BME280;59654;52.216;5.616;2023-02-03T02:44:25;102107.97;;;7.35;90.49
71805;BME280;59654;52.216;5.616;2023-02-03T02:45:16;102104.44;;;7.36;90.71
71805;BME280;59654;52.216;5.616;2023-02-03T02:46:00;102107.09;;;7.35;89.80
71805;BME280;59654;52.216;5.616;2023-02-03T02:47:22;102104.44;;;7.32;90.66
71805;BME280;59654;52.216;5.616;2023-02-03T02:48:09;102104.44;;;7.29;89.60
71805;BME280;59654;52.216;5.616;2023-02-03T02:50:17;102092.06;;;7.29;89.86
71805;BME280;59654;52.216;5.616;2023-02-03T02:50:55;102098.25;;;7.33;90.84
71805;BME280;59654;52.216;5.616;2023-02-03T02:51:29;102098.25;;;7.33;89.64
71805;BME280;59654;52.216;5.616;2023-02-03T02:52:04;102100.91;;;7.28;89.98
71805;BME280;59654;52.216;5.616;2023-02-03T02:52:40;102094.72;;;7.26;89.82
71805;BME280;59654;52.216;5.616;2023-02-03T02:53:14;102100.97;;;7.22;89.99
71805;BME280;59654;52.216;5.616;2023-02-03T02:53:55;102090.34;;;7.21;90.37
71805;BME280;59654;52.216;5.616;2023-02-03T02:54:31;102098.31;;;7.22;90.56
71805;BME280;59654;52.216;5.616;2023-02-03T02:55:16;102097.44;;;7.20;90.56
71805;BME280;59654;52.216;5.616;2023-02-03T02:55:56;102093.00;;;7.19;89.95
71805;BME280;59654;52.216;5.616;2023-02-03T02:56:31;102094.75;;;7.17;90.42
71805;BME280;59654;52.216;5.616;2023-02-03T02:57:09;102100.97;;;7.19;90.72
71805;BME280;59654;52.216;5.616;2023-02-03T02:57:43;102092.13;;;7.19;90.50
71805;BME280;59654;52.216;5.616;2023-02-03T02:58:18;102093.88;;;7.18;90.68
71805;BME280;59654;52.216;5.616;2023-02-03T02:58:53;102091.25;;;7.21;90.87
71805;BME280;59654;52.216;5.616;2023-02-03T02:59:26;102091.19;;;7.26;90.15
71805;BME280;59654;52.216;5.616;2023-02-03T02:59:57;102100.91;;;7.25;90.39
71805;BME280;59654;52.216;5.616;2023-02-03T03:00:29;102099.19;;;7.23;90.39
71805;BME280;59654;52.216;5.616;2023-02-03T03:01:01;102094.75;;;7.23;90.13
71805;BME280;59654;52.216;5.616;2023-02-03T03:01:33;102100.03;;;7.28;90.38
71805;BME280;59654;52.216;5.616;2023-02-03T03:02:06;102100.91;;;7.28;89.37
71805;BME280;59654;52.216;5.616;2023-02-03T03:02:39;102088.53;;;7.26;89.45
71805;BME280;59654;52.216;5.616;2023-02-03T03:03:21;102094.72;;;7.29;89.98
71805;BME280;59654;52.216;5.616;2023-02-03T03:03:53;102098.25;;;7.28;89.08
71805;BME280;59654;52.216;5.616;2023-02-03T03:04:27;102092.97;;;7.27;89.42
71805;BME280;59654;52.216;5.616;2023-02-03T03:05:03;102093.84;;;7.30;89.82
71805;BME280;59654;52.216;5.616;2023-02-03T03:05:41;102090.31;;;7.25;88.93
71805;BME280;59654;52.216;5.616;2023-02-03T03:06:26;102089.41;;;7.29;89.24
71805;BME280;59654;52.216;5.616;2023-02-03T03:07:21;102093.84;;;7.27;89.39
71805;BME280;59654;52.216;5.616;2023-02-03T03:07:58;102085.06;;;7.19;89.84
71805;BME280;59654;52.216;5.616;2023-02-03T03:08:51;102089.44;;;7.23;90.36
71805;BME280;59654;52.216;5.616;2023-02-03T03:09:32;102081.50;;;7.17;89.22
71805;BME280;59654;52.216;5.616;2023-02-03T03:10:13;102084.13;;;7.17;90.10
71805;BME280;59654;52.216;5.616;2023-02-03T03:10:47;102086.81;;;7.19;89.45
71805;BME280;59654;52.216;5.616;2023-02-03T03:11:19;102089.44;;;7.17;89.52
71805;BME280;59654;52.216;5.616;2023-02-03T03:12:04;102079.75;;;7.21;89.91
71805;BME280;59654;52.216;5.616;2023-02-03T03:12:53;102087.66;;;7.24;89.20
71805;BME280;59654;52.216;5.616;2023-02-03T03:13:32;102082.34;;;7.27;89.75
71805;BME280;59654;52.216;5.616;2023-02-03T03:14:09;102092.06;;;7.31;89.17
71805;BME280;59654;52.216;5.616;2023-02-03T03:14:45;102086.75;;;7.34;89.41
71805;BME280;59654;52.216;5.616;2023-02-03T03:15:26;102094.72;;;7.31;89.61
71805;BME280;59654;52.216;5.616;2023-02-03T03:16:00;102095.63;;;7.27;88.66
71805;BME280;59654;52.216;5.616;2023-02-03T03:16:37;102097.38;;;7.29;89.23
71805;BME280;59654;52.216;5.616;2023-02-03T03:17:16;102095.59;;;7.30;89.47
71805;BME280;59654;52.216;5.616;2023-02-03T03:18:18;102103.56;;;7.30;88.89
71805;BME280;59654;52.216;5.616;2023-02-03T03:19:24;102089.41;;;7.26;89.48
71805;BME280;59654;52.216;5.616;2023-02-03T03:20:04;102088.53;;;7.24;89.88
71805;BME280;59654;52.216;5.616;2023-02-03T03:20:41;102083.28;;;7.23;89.32
71805;BME280;59654;52.216;5.616;2023-02-03T03:21:21;102083.25;;;7.24;89.07
71805;BME280;59654;52.216;5.616;2023-02-03T03:22:00;102078.81;;;7.25;89.75
71805;BME280;59654;52.216;5.616;2023-02-03T03:22:38;102070.88;;;7.23;89.32
71805;BME280;59654;52.216;5.616;2023-02-03T03:23:20;102078.84;;;7.22;89.42